Time;durP1;ratioP1;P1;durP2;ratioP2;P2;SDS_P1;SDS_P2;PMS_P1;PMS_P2;Temp;Humidity;BMP_temperature;BMP_pressure;BME280_temperature;BME280_humidity;BME280_pressure;Samples;Min_cycle;Max_cycle;Signal;HPM_P1;HPM_P2
2022/05/24 00:00:07;;;;;;;;;;;;;;;22.20;59.84;99727.19;4938393;29;20302;-63
2022/05/24 00:02:56;;;;;;;;;;;;;;;22.49;59.15;99731.88;4946105;28;20381;-63
2022/05/24 00:05:40;;;;;;;;;;;;;;;22.77;58.38;99729.88;4943833;29;19919;-63
2022/05/24 00:08:25;;;;;;;;;;;;;;;22.80;57.70;99734.59;4937048;29;19919;-62
2022/05/24 00:11:09;;;;;;;;;;;;;;;22.58;58.43;99742.44;4935320;29;19923;-62
2022/05/24 00:13:54;;;;;;;;;;;;;;;22.46;58.89;99731.91;4945467;29;20302;-62
2022/05/24 00:16:38;;;;;;;;;;;;;;;22.71;58.69;99718.47;4937325;29;20290;-62
2022/05/24 00:19:23;;;;;;;;;;;;;;;22.95;58.17;99699.88;4937607;29;19923;-62
2022/05/24 00:22:07;;;;;;;;;;;;;;;23.10;57.22;99708.69;4934920;29;20294;-62
2022/05/24 00:24:52;;;;;;;;;;;;;;;23.33;56.80;99705.88;4935845;29;19919;-62
2022/05/24 00:27:36;;;;;;;;;;;;;;;23.21;56.33;99721.16;4932559;29;19919;-62
2022/05/24 00:30:22;;;;;;;;;;;;;;;23.15;57.58;99739.50;4941380;29;19922;-62
2022/05/24 00:33:07;;;;;;;;;;;;;;;23.22;56.29;99738.56;4931165;29;19918;-62
2022/05/24 00:35:52;;;;;;;;;;;;;;;23.02;57.55;99731.00;4937335;29;20386;-62
2022/05/24 00:38:38;;;;;;;;;;;;;;;23.14;57.50;99720.50;4936609;29;19919;-62
2022/05/24 00:41:26;;;;;;;;;;;;;;;22.97;56.55;99712.09;4937177;29;19919;-62
2022/05/24 00:44:27;;;;;;;;;;;;;;;22.82;56.95;99721.84;4936730;29;19918;-63
2022/05/24 00:47:23;;;;;;;;;;;;;;;22.65;57.42;99720.16;4941361;29;20386;-62
2022/05/24 00:50:21;;;;;;;;;;;;;;;22.75;57.18;99719.22;4936852;29;19927;-62
2022/05/24 00:53:07;;;;;;;;;;;;;;;22.47;58.02;99716.88;4931311;29;20363;-62
2022/05/24 00:55:57;;;;;;;;;;;;;;;22.17;59.44;99712.97;4917895;29;19919;-63
2022/05/24 00:58:49;;;;;;;;;;;;;;;22.35;59.77;99706.38;4917675;29;20375;-63
2022/05/24 01:01:41;;;;;;;;;;;;;;;22.81;58.85;99708.41;4918043;29;19919;-62
2022/05/24 01:04:26;;;;;;;;;;;;;;;23.11;58.00;99718.59;4931031;29;20294;-63
2022/05/24 01:07:10;;;;;;;;;;;;;;;23.07;57.21;99704.78;4935749;29;19918;-62
2022/05/24 01:09:59;;;;;;;;;;;;;;;22.77;58.54;99714.03;4936146;29;19923;-62
2022/05/24 01:13:03;;;;;;;;;;;;;;;23.04;57.86;99708.41;4944678;29;19923;-62
2022/05/24 01:15:48;;;;;;;;;;;;;;;23.18;57.53;99704.56;4936732;29;20311;-63
2022/05/24 01:18:33;;;;;;;;;;;;;;;23.11;57.42;99704.72;4936101;29;19919;-63
2022/05/24 01:21:18;;;;;;;;;;;;;;;23.09;57.79;99704.34;4936652;29;20544;-63
2022/05/24 01:24:14;;;;;;;;;;;;;;;23.15;57.75;99708.22;4936081;29;19935;-63
2022/05/24 01:26:59;;;;;;;;;;;;;;;22.97;57.36;99709.31;4917060;29;20387;-63
2022/05/24 01:29:43;;;;;;;;;;;;;;;22.73;58.26;99712.50;4935874;29;19922;-62
2022/05/24 01:38:35;;;;;;;;;;;;;;;22.59;58.64;99713.50;4935588;29;19919;-62
2022/05/24 01:41:30;;;;;;;;;;;;;;;22.26;59.75;99706.09;4935968;29;19923;-62
2022/05/24 01:44:18;;;;;;;;;;;;;;;22.29;59.11;99700.53;4935716;29;19919;-62
2022/05/24 01:47:02;;;;;;;;;;;;;;;22.46;58.84;99698.66;4935358;29;19918;-62
2022/05/24 01:49:49;;;;;;;;;;;;;;;22.65;58.27;99702.75;4935004;29;19923;-62
2022/05/24 01:52:38;;;;;;;;;;;;;;;22.78;58.09;99692.63;4935527;29;19919;-63
2022/05/24 01:55:35;;;;;;;;;;;;;;;22.93;57.89;99700.28;4935780;29;19918;-63
2022/05/24 01:58:22;;;;;;;;;;;;;;;22.88;57.02;99692.44;4935244;29;19918;-63
2022/05/24 02:01:12;;;;;;;;;;;;;;;22.82;56.76;99688.59;4935666;29;19918;-63
2022/05/24 02:03:59;;;;;;;;;;;;;;;22.75;57.02;99699.03;4935626;29;19918;-63
2022/05/24 02:06:44;;;;;;;;;;;;;;;22.56;58.13;99698.50;4934324;29;19918;-62
2022/05/24 02:09:29;;;;;;;;;;;;;;;22.37;58.37;99693.66;4936385;29;19922;-63
2022/05/24 02:12:17;;;;;;;;;;;;;;;22.11;58.92;99700.78;4938392;29;19918;-63
2022/05/24 02:15:06;;;;;;;;;;;;;;;22.25;58.77;99704.56;4935017;29;20298;-64
2022/05/24 02:17:52;;;;;;;;;;;;;;;22.16;58.95;99708.63;4959834;23;19926;-78
2022/05/24 02:20:38;;;;;;;;;;;;;;;22.24;58.51;99703.00;4963227;28;20384;-77
2022/05/24 02:23:25;;;;;;;;;;;;;;;22.23;58.65;99715.25;4970103;28;19918;-78
2022/05/24 02:26:10;;;;;;;;;;;;;;;22.14;58.66;99716.59;4939307;28;19919;-79
2022/05/24 02:28:57;;;;;;;;;;;;;;;22.05;59.45;99710.75;4953341;28;19907;-79
2022/05/24 02:31:42;;;;;;;;;;;;;;;22.03;59.55;99707.63;4953082;28;20404;-81
2022/05/24 02:34:26;;;;;;;;;;;;;;;21.59;60.41;99703.03;4960662;28;19918;-80
2022/05/24 02:37:11;;;;;;;;;;;;;;;21.49;61.32;99703.94;4939047;29;19918;-79
2022/05/24 02:43:00;;;;;;;;;;;;;;;21.96;59.02;99713.25;4917990;29;19919;-79
2022/05/24 02:45:45;;;;;;;;;;;;;;;21.85;59.73;99707.06;4948318;28;19926;-80
2022/05/24 02:48:30;;;;;;;;;;;;;;;21.83;59.28;99719.75;4935421;29;19919;-81
2022/05/24 02:51:15;;;;;;;;;;;;;;;21.69;60.62;99706.84;4939899;29;19922;-80
2022/05/24 02:54:00;;;;;;;;;;;;;;;21.59;60.46;99705.81;4949761;28;19918;-80
2022/05/24 02:56:46;;;;;;;;;;;;;;;21.66;60.31;99714.03;4936245;29;19926;-81
2022/05/24 02:59:30;;;;;;;;;;;;;;;21.62;60.00;99712.50;4961858;28;19923;-80
2022/05/24 03:02:15;;;;;;;;;;;;;;;21.55;61.12;99709.81;4953314;28;19919;-80
2022/05/24 03:05:00;;;;;;;;;;;;;;;22.00;60.54;99714.00;4916108;29;19919;-80
2022/05/24 03:10:50;;;;;;;;;;;;;;;21.50;59.76;99710.25;4937363;29;19922;-80
2022/05/24 03:16:38;;;;;;;;;;;;;;;21.44;60.90;99712.69;4945073;28;19918;-79
2022/05/24 03:19:23;;;;;;;;;;;;;;;21.82;61.08;99726.47;4942057;28;19922;-81
2022/05/24 03:22:09;;;;;;;;;;;;;;;21.95;58.95;99731.06;4961527;28;19919;-79
2022/05/24 03:24:53;;;;;;;;;;;;;;;21.85;59.25;99736.72;4958076;29;19918;-80
2022/05/24 03:27:38;;;;;;;;;;;;;;;21.44;60.43;99734.03;4952589;29;19919;-80
2022/05/24 03:30:22;;;;;;;;;;;;;;;21.38;61.18;99742.03;4932020;29;19927;-80
2022/05/24 03:33:07;;;;;;;;;;;;;;;21.71;61.26;99744.00;4935079;29;19919;-80
2022/05/24 03:35:51;;;;;;;;;;;;;;;21.77;60.24;99744.34;4942956;28;19919;-80
2022/05/24 03:38:37;;;;;;;;;;;;;;;21.77;60.54;99745.13;4947666;28;20347;-79
2022/05/24 03:41:21;;;;;;;;;;;;;;;21.60;60.05;99737.03;4949850;28;19918;-80
2022/05/24 03:44:06;;;;;;;;;;;;;;;21.41;60.51;99741.19;4953540;29;20383;-80
2022/05/24 03:46:52;;;;;;;;;;;;;;;21.25;62.02;99744.53;4963997;28;19919;-81
2022/05/24 03:49:36;;;;;;;;;;;;;;;21.25;62.53;99747.28;4964130;28;19919;-79
2022/05/24 03:52:21;;;;;;;;;;;;;;;21.21;63.10;99754.84;4938876;29;20312;-80
2022/05/24 03:55:05;;;;;;;;;;;;;;;21.18;62.40;99752.88;4935070;29;19919;-80
2022/05/24 03:58:02;;;;;;;;;;;;;;;21.27;61.46;99749.66;4940873;28;19922;-79
2022/05/24 04:00:47;;;;;;;;;;;;;;;21.13;62.60;99758.81;4942382;29;20380;-78
2022/05/24 04:03:32;;;;;;;;;;;;;;;20.96;63.62;99765.31;4941337;29;19923;-80
2022/05/24 04:06:17;;;;;;;;;;;;;;;21.24;62.47;99778.09;4944969;28;19923;-81
2022/05/24 04:09:02;;;;;;;;;;;;;;;21.39;62.07;99787.03;4951857;28;19931;-81
2022/05/24 04:11:46;;;;;;;;;;;;;;;21.47;61.43;99788.56;4938598;29;19922;-79
2022/05/24 04:14:32;;;;;;;;;;;;;;;21.34;62.29;99794.59;4948492;28;20424;-80
2022/05/24 04:17:17;;;;;;;;;;;;;;;21.32;62.33;99785.94;4945992;28;19919;-80
2022/05/24 04:20:02;;;;;;;;;;;;;;;21.33;62.38;99787.50;4947666;29;19926;-81
2022/05/24 04:22:47;;;;;;;;;;;;;;;21.43;61.92;99787.81;4949991;28;19919;-80
2022/05/24 04:25:33;;;;;;;;;;;;;;;21.31;62.87;99798.19;4974573;28;19919;-81
2022/05/24 04:28:18;;;;;;;;;;;;;;;21.44;62.58;99801.22;4952216;28;19919;-80
2022/05/24 04:31:04;;;;;;;;;;;;;;;21.60;61.92;99798.69;4932149;29;20324;-80
2022/05/24 04:33:48;;;;;;;;;;;;;;;21.70;61.41;99802.53;4935983;29;19919;-80
2022/05/24 04:36:33;;;;;;;;;;;;;;;21.86;61.31;99805.50;4947521;28;19923;-80
2022/05/24 04:39:18;;;;;;;;;;;;;;;21.92;61.91;99814.16;4943503;28;19919;-79
2022/05/24 04:42:19;;;;;;;;;;;;;;;22.16;60.82;99805.56;4927809;29;19918;-79
2022/05/24 04:45:06;;;;;;;;;;;;;;;22.21;60.78;99809.84;4960957;28;19919;-80
2022/05/24 04:47:50;;;;;;;;;;;;;;;22.37;60.48;99812.00;4949086;28;19918;-79
2022/05/24 04:50:37;;;;;;;;;;;;;;;22.49;60.15;99819.75;4938184;29;19923;-79
2022/05/24 04:53:22;;;;;;;;;;;;;;;22.55;60.00;99823.66;4946763;28;19919;-81
2022/05/24 04:56:06;;;;;;;;;;;;;;;22.87;59.08;99818.41;4950906;28;20300;-80
2022/05/24 04:58:51;;;;;;;;;;;;;;;23.22;57.94;99822.59;4956804;28;19919;-81
2022/05/24 05:01:35;;;;;;;;;;;;;;;23.21;58.21;99829.34;4962751;28;19919;-82
2022/05/24 05:04:21;;;;;;;;;;;;;;;23.38;57.55;99841.34;4958543;28;19919;-79
2022/05/24 05:07:05;;;;;;;;;;;;;;;23.51;57.27;99839.56;4945223;28;19919;-79
2022/05/24 05:09:51;;;;;;;;;;;;;;;23.57;56.95;99843.41;4931869;29;19934;-78
2022/05/24 05:12:36;;;;;;;;;;;;;;;23.39;57.69;99842.91;4950742;28;19918;-80
2022/05/24 05:15:20;;;;;;;;;;;;;;;23.48;57.60;99845.16;4954044;28;19919;-79
2022/05/24 05:18:06;;;;;;;;;;;;;;;23.60;57.33;99847.34;4931237;29;19918;-80
2022/05/24 05:20:52;;;;;;;;;;;;;;;23.66;57.09;99846.44;4943065;29;20323;-79
2022/05/24 05:23:37;;;;;;;;;;;;;;;23.48;58.18;99848.72;4946764;29;19919;-80
2022/05/24 05:26:21;;;;;;;;;;;;;;;23.28;58.93;99853.41;4948058;29;19918;-77
2022/05/24 05:29:05;;;;;;;;;;;;;;;23.02;60.15;99847.47;4946778;28;19919;-78
2022/05/24 05:31:50;;;;;;;;;;;;;;;22.71;61.73;99851.53;4932223;29;20373;-80
2022/05/24 05:34:34;;;;;;;;;;;;;;;22.89;61.85;99849.28;4940803;28;19918;-81
2022/05/24 05:37:19;;;;;;;;;;;;;;;22.77;62.05;99849.84;4949558;28;19923;-82
2022/05/24 05:40:11;;;;;;;;;;;;;;;22.62;62.73;99854.00;4923376;29;19919;-79
2022/05/24 05:42:55;;;;;;;;;;;;;;;22.70;62.54;99849.94;4931839;29;19918;-80
2022/05/24 05:45:42;;;;;;;;;;;;;;;23.02;61.61;99852.25;4960128;28;19922;-81
2022/05/24 05:48:27;;;;;;;;;;;;;;;23.41;59.66;99857.94;4947129;28;19918;-80
2022/05/24 05:51:13;;;;;;;;;;;;;;;23.68;58.67;99854.31;4955580;29;19923;-81
2022/05/24 05:53:58;;;;;;;;;;;;;;;23.96;57.54;99850.22;4944346;29;19919;-80
2022/05/24 05:56:42;;;;;;;;;;;;;;;24.00;57.21;99853.69;4953456;28;19918;-80
2022/05/24 05:59:27;;;;;;;;;;;;;;;24.01;57.22;99852.50;4972055;28;19918;-80
2022/05/24 06:02:11;;;;;;;;;;;;;;;24.04;57.07;99854.41;4961807;28;19938;-80
2022/05/24 06:04:56;;;;;;;;;;;;;;;24.03;57.61;99863.94;4937929;28;19922;-81
2022/05/24 06:07:40;;;;;;;;;;;;;;;23.95;57.99;99862.53;4950258;28;19919;-80
2022/05/24 06:10:26;;;;;;;;;;;;;;;23.94;58.22;99860.97;4964287;28;19922;-82
2022/05/24 06:13:10;;;;;;;;;;;;;;;24.00;58.39;99870.38;4949360;29;19919;-83
2022/05/24 06:15:56;;;;;;;;;;;;;;;23.98;59.08;99858.88;4972661;28;19919;-83
2022/05/24 06:18:40;;;;;;;;;;;;;;;23.98;59.13;99867.22;4960147;28;19922;-82
2022/05/24 06:21:25;;;;;;;;;;;;;;;24.02;59.17;99865.19;4940220;29;20403;-80
2022/05/24 06:24:11;;;;;;;;;;;;;;;23.85;59.34;99870.66;4950571;28;19934;-79
2022/05/24 06:26:56;;;;;;;;;;;;;;;23.76;59.39;99867.66;4932111;29;19919;-80
2022/05/24 06:29:40;;;;;;;;;;;;;;;24.28;58.13;99864.25;4948580;28;19918;-81
2022/05/24 06:32:25;;;;;;;;;;;;;;;25.29;54.85;99867.16;4937677;29;19923;-80
2022/05/24 06:35:09;;;;;;;;;;;;;;;25.64;53.55;99871.06;4937546;29;19923;-80
2022/05/24 06:37:54;;;;;;;;;;;;;;;25.50;53.88;99869.38;4936322;29;19923;-80
2022/05/24 06:40:39;;;;;;;;;;;;;;;25.18;54.54;99869.41;4937675;29;20072;-81
2022/05/24 06:43:23;;;;;;;;;;;;;;;25.25;54.25;99869.22;4935641;29;19923;-80
2022/05/24 06:46:08;;;;;;;;;;;;;;;25.36;54.02;99875.31;4940867;29;19918;-80
2022/05/24 06:48:53;;;;;;;;;;;;;;;25.52;51.99;99873.31;4939754;29;19922;-79
2022/05/24 06:51:37;;;;;;;;;;;;;;;25.97;51.94;99872.53;4958294;28;20335;-79
2022/05/24 06:54:22;;;;;;;;;;;;;;;26.13;51.36;99868.91;4951580;29;19918;-79
2022/05/24 06:57:07;;;;;;;;;;;;;;;26.27;50.50;99863.72;4969151;28;20303;-80
2022/05/24 07:02:59;;;;;;;;;;;;;;;26.08;48.57;99875.81;4936288;29;19919;-81
2022/05/24 07:05:44;;;;;;;;;;;;;;;26.43;48.51;99876.81;4936289;29;19923;-80
2022/05/24 07:08:35;;;;;;;;;;;;;;;26.11;48.69;99886.06;4950185;28;19922;-79
2022/05/24 07:11:20;;;;;;;;;;;;;;;25.69;49.77;99884.44;4963678;28;20319;-80
2022/05/24 07:14:04;;;;;;;;;;;;;;;25.91;49.50;99883.41;4943765;29;19919;-79
2022/05/24 07:16:49;;;;;;;;;;;;;;;26.20;49.71;99889.00;4959636;28;19918;-80
2022/05/24 07:19:33;;;;;;;;;;;;;;;26.47;50.63;99890.63;4946307;28;19919;-79
2022/05/24 07:22:18;;;;;;;;;;;;;;;26.54;50.02;99893.22;4946630;28;19922;-80
2022/05/24 07:25:03;;;;;;;;;;;;;;;26.60;49.48;99888.66;4949100;28;20108;-79
2022/05/24 07:27:48;;;;;;;;;;;;;;;26.72;47.32;99883.09;4953476;28;19918;-79
2022/05/24 07:30:32;;;;;;;;;;;;;;;26.72;46.82;99885.09;4935364;29;19923;-81
2022/05/24 07:33:17;;;;;;;;;;;;;;;26.47;49.38;99888.63;4936386;29;19919;-80
2022/05/24 07:36:03;;;;;;;;;;;;;;;26.53;48.84;99883.28;4937828;29;19919;-80
2022/05/24 07:38:47;;;;;;;;;;;;;;;26.23;49.15;99882.56;4935117;29;19923;-81
2022/05/24 07:45:48;;;;;;;;;;;;;;;25.91;49.14;99871.50;4937618;29;19918;-80
2022/05/24 07:47:55;;;;;;;;;;;;;;;25.65;48.74;99876.16;4937316;29;19918;-79
2022/05/24 07:50:39;;;;;;;;;;;;;;;25.65;48.21;99872.63;4942384;29;19922;-81
2022/05/24 07:53:24;;;;;;;;;;;;;;;25.85;47.39;99878.84;4961421;28;19919;-80
2022/05/24 07:56:08;;;;;;;;;;;;;;;26.24;46.45;99872.19;4953935;28;20387;-80
2022/05/24 07:58:55;;;;;;;;;;;;;;;26.54;46.12;99868.13;4938284;29;20292;-81
2022/05/24 08:01:40;;;;;;;;;;;;;;;26.74;45.43;99877.84;4938350;29;19918;-80
2022/05/24 08:04:25;;;;;;;;;;;;;;;26.88;45.28;99879.44;4951780;28;19919;-78
2022/05/24 08:07:10;;;;;;;11.27;4.78;;;;;;;26.45;46.09;99877.16;4939549;28;20414;-88
2022/05/24 08:09:55;;;;;;;6.75;4.07;;;;;;;26.60;44.64;99875.50;4954386;28;20070;-86
2022/05/24 08:12:42;;;;;;;20.75;4.65;;;;;;;26.60;44.73;99875.50;4945934;28;20421;-87
2022/05/24 08:15:30;;;;;;;8.18;3.80;;;;;;;26.65;44.09;99879.75;4953474;28;20059;-86
2022/05/24 08:18:14;;;;;;;8.70;3.95;;;;;;;26.65;44.70;99876.97;4929374;29;20042;-86
2022/05/24 08:21:00;;;;;;;161.65;11.32;;;;;;;26.62;44.52;99875.03;4949321;23;20411;-60
2022/05/24 08:23:44;;;;;;;14.98;4.22;;;;;;;26.61;44.31;99881.88;4925422;29;20040;-61
2022/05/24 08:26:30;;;;;;;10.13;4.10;;;;;;;26.56;44.23;99883.19;4916145;29;20051;-61
2022/05/24 08:29:15;;;;;;;8.07;5.40;;;;;;;26.46;44.45;99880.72;4917489;29;20063;-60
2022/05/24 08:32:02;;;;;;;14.30;3.60;;;;;;;26.46;44.97;99883.53;4918281;29;20036;-60
2022/05/24 08:34:48;;;;;;;9.55;3.80;;;;;;;26.66;43.68;99882.09;4915663;29;20047;-61
2022/05/24 08:37:33;;;;;;;9.60;4.00;;;;;;;26.72;43.45;99874.72;4914025;29;20116;-60
2022/05/24 08:40:20;;;;;;;5.65;3.22;;;;;;;26.80;44.10;99872.50;4918896;29;20055;-60
2022/05/24 08:43:05;;;;;;;16.60;3.60;;;;;;;26.80;44.25;99880.88;4916689;29;20413;-60
2022/05/24 08:49:09;;;;;;;14.48;4.13;;;;;;;26.93;43.24;99876.09;4914904;29;20050;-58
2022/05/24 08:51:58;;;;;;;6.28;3.10;;;;;;;26.94;43.26;99862.91;4914967;29;20055;-60
2022/05/24 08:54:45;;;;;;;37.85;6.50;;;;;;;26.95;43.00;99865.28;4919386;29;20420;-61
2022/05/24 08:57:42;;;;;;;11.93;3.45;;;;;;;27.01;42.73;99857.13;4909543;29;20059;-59
2022/05/24 09:00:33;;;;;;;4.82;3.10;;;;;;;27.08;43.04;99856.88;4921049;29;20051;-61
2022/05/24 09:03:24;;;;;;;8.45;3.00;;;;;;;27.10;42.85;99865.59;4911087;29;20047;-60
2022/05/24 09:06:24;;;;;;;8.38;4.00;;;;;;;27.09;42.91;99856.44;4910857;29;20052;-60
2022/05/24 09:09:29;;;;;;;6.68;3.53;;;;;;;27.26;42.62;99867.47;4918617;29;20054;-59
2022/05/24 09:12:33;;;;;;;17.90;3.85;;;;;;;27.28;41.77;99868.56;4914038;29;20043;-60
2022/05/24 09:15:41;;;;;;;10.85;3.65;;;;;;;27.31;42.77;99864.91;4916828;29;20051;-59
2022/05/24 09:18:29;;;;;;;8.35;3.90;;;;;;;27.28;42.35;99862.97;4915951;29;20070;-59
2022/05/24 09:21:25;;;;;;;10.85;4.43;;;;;;;27.31;41.61;99866.91;4913255;29;20059;-61
2022/05/24 09:24:41;;;;;;;10.98;3.60;;;;;;;27.32;41.74;99868.47;4910753;29;20051;-61
2022/05/24 09:27:28;;;;;;;9.02;4.22;;;;;;;27.28;41.34;99865.03;4912662;29;20054;-61
2022/05/24 09:30:30;;;;;;;19.20;4.40;;;;;;;27.24;41.08;99856.75;4913731;29;20047;-59
2022/05/24 09:33:24;;;;;;;6.82;4.00;;;;;;;27.22;41.43;99865.59;4913419;29;20416;-59
2022/05/24 09:36:09;;;;;;;11.68;4.18;;;;;;;27.22;41.63;99860.00;4919919;29;20063;-62
2022/05/24 09:38:54;;;;;;;10.70;4.40;;;;;;;27.22;41.45;99854.41;4915895;29;20519;-62
2022/05/24 09:41:53;;;;;;;8.15;3.08;;;;;;;27.32;40.65;99857.28;4922010;29;20070;-60
2022/05/24 09:45:02;;;;;;;8.00;3.40;;;;;;;27.29;41.14;99855.38;4918025;29;20059;-59
2022/05/24 09:47:47;;;;;;;6.13;3.25;;;;;;;27.28;41.43;99857.41;4934982;29;20043;-60
2022/05/24 09:50:34;;;;;;;12.30;4.03;;;;;;;27.31;41.58;99856.50;4935749;29;20490;-61
2022/05/24 09:53:30;;;;;;;10.40;3.55;;;;;;;27.28;40.76;99851.06;4925339;29;20161;-60
2022/05/24 09:56:26;;;;;;;9.18;3.33;;;;;;;27.32;41.71;99852.50;4919523;29;20044;-60
2022/05/24 09:59:26;;;;;;;7.95;2.80;;;;;;;27.33;42.56;99862.41;4917566;29;20058;-60
2022/05/24 10:02:23;;;;;;;9.20;3.70;;;;;;;27.26;42.61;99861.88;4920987;29;20048;-60
2022/05/24 10:05:24;;;;;;;9.35;3.67;;;;;;;27.27;42.80;99866.25;4916355;29;20427;-59
2022/05/24 10:08:15;;;;;;;21.88;4.50;;;;;;;27.29;42.67;99860.97;4917229;29;20047;-61
2022/05/24 10:11:02;;;;;;;41.13;5.28;;;;;;;27.25;42.33;99866.69;4914183;29;20043;-59
2022/05/24 10:14:05;;;;;;;10.00;4.20;;;;;;;27.23;42.50;99858.75;4911942;29;20621;-61
2022/05/24 10:17:06;;;;;;;11.77;3.50;;;;;;;27.25;42.37;99858.31;4912253;29;20563;-59
2022/05/24 10:19:59;;;;;;;12.52;3.85;;;;;;;27.30;42.34;99859.75;4924058;29;20047;-60
2022/05/24 10:23:01;;;;;;;36.90;6.28;;;;;;;27.45;41.34;99858.03;4917451;29;20110;-59
2022/05/24 10:26:23;;;;;;;9.30;3.80;;;;;;;27.61;41.16;99855.13;4915744;29;20051;-60
2022/05/24 10:29:17;;;;;;;8.98;3.85;;;;;;;27.52;41.35;99863.41;4910762;29;20043;-60
2022/05/24 10:32:08;;;;;;;22.17;5.10;;;;;;;27.51;41.36;99867.44;4915313;29;20051;-60
2022/05/24 10:38:34;;;;;;;14.23;3.67;;;;;;;27.45;42.21;99863.63;4915857;29;20051;-60
2022/05/24 10:41:31;;;;;;;14.98;3.83;;;;;;;27.44;42.37;99856.47;4911133;29;20043;-61
2022/05/24 10:44:25;;;;;;;92.47;22.38;;;;;;;27.45;42.13;99863.63;4915194;29;20055;-62
2022/05/24 10:47:28;;;;;;;67.82;13.52;;;;;;;27.44;40.95;99860.03;4917840;29;20047;-60
2022/05/24 10:50:39;;;;;;;187.23;31.90;;;;;;;27.44;40.85;99854.47;4915449;29;20048;-62
2022/05/24 10:53:35;;;;;;;20.70;8.25;;;;;;;27.41;40.65;99851.81;4914784;29;20500;-60
2022/05/24 10:56:45;;;;;;;20.48;4.57;;;;;;;27.37;39.65;99851.94;4914017;29;20060;-59
2022/05/24 10:59:39;;;;;;;9.18;4.18;;;;;;;27.36;39.62;99849.56;4920053;29;20047;-61
2022/05/24 11:02:31;;;;;;;19.08;4.28;;;;;;;27.37;39.90;99845.56;4912178;29;20047;-60
2022/05/24 11:05:37;;;;;;;10.25;4.18;;;;;;;27.42;40.44;99851.34;4902686;29;20048;-60
2022/05/24 11:08:52;;;;;;;16.02;4.45;;;;;;;27.37;40.17;99851.16;4903722;29;20419;-60
2022/05/24 11:11:44;;;;;;;13.38;3.88;;;;;;;27.41;40.28;99846.22;4919977;29;20437;-61
2022/05/24 11:14:42;;;;;;;6.85;3.55;;;;;;;27.46;39.86;99859.59;4908804;29;20067;-60
2022/05/24 11:17:27;;;;;;;25.63;5.03;;;;;;;27.40;40.60;99850.22;4914815;29;20050;-60
2022/05/24 11:20:13;;;;;;;19.02;5.38;;;;;;;27.33;40.70;99853.28;4914576;29;20531;-60
2022/05/24 11:23:01;;;;;;;15.05;3.78;;;;;;;27.26;41.14;99853.50;4908727;29;20040;-60
2022/05/24 11:25:56;;;;;;;15.00;4.95;;;;;;;27.22;40.74;99851.63;4915218;29;20063;-59
2022/05/24 11:28:47;;;;;;;;;;;;;;;27.17;41.23;99851.41;4916204;29;20408;-68
2022/05/24 11:31:34;;;;;;;;;;;;;;;27.10;41.44;99848.84;4915965;29;19919;-60
2022/05/24 11:34:19;;;;;;;;;;;;;;;27.05;40.90;99844.59;4918276;29;19915;-60
2022/05/24 11:37:05;;;;;;;;;;;;;;;26.93;41.21;99841.81;4914099;29;19915;-61
2022/05/24 11:39:51;;;;;;;;;;;;;;;26.97;41.69;99843.25;4919313;29;20298;-61
2022/05/24 11:42:45;;;;;;;;;;;;;;;27.01;41.87;99843.94;4918138;29;19915;-60
2022/05/24 11:45:29;;;;;;;;;;;;;;;27.04;41.52;99845.06;4909896;29;19915;-61
2022/05/24 11:48:15;;;;;;;;;;;;;;;27.03;41.47;99835.09;4916014;29;19914;-60
2022/05/24 11:51:19;;;;;;;;;;;;;;;27.11;41.25;99839.25;4918904;29;19915;-62
2022/05/24 11:54:07;;;;;;;;;;;;;;;27.28;40.88;99845.47;4918239;29;19918;-60
2022/05/24 11:56:52;;;;;;;;;;;;;;;27.45;41.05;99844.84;4914291;29;19916;-61
2022/05/24 11:59:43;;;;;;;;;;;;;;;27.55;40.57;99835.34;4913572;29;19911;-60
2022/05/24 12:02:32;;;;;;;;;;;;;;;27.70;40.36;99830.03;4920343;29;19915;-60
2022/05/24 12:08:34;;;;;;;;;;;;;;;27.77;39.65;99824.22;4920485;28;19915;-60
2022/05/24 12:11:31;;;;;;;;;;;;;;;27.74;39.08;99821.53;4902419;29;20402;-61
2022/05/24 12:14:16;;;;;;;;;;;;;;;27.75;39.18;99823.09;4916896;29;19915;-60
2022/05/24 12:17:00;;;;;;;;;;;;;;;27.72;39.75;99824.00;4917599;29;19915;-60
2022/05/24 12:19:48;;;;;;;;;;;;;;;27.71;39.88;99828.03;4924399;29;19922;-60
2022/05/24 12:22:52;;;;;;;;;;;;;;;27.69;40.89;99822.09;4917974;29;19914;-59
2022/05/24 12:25:52;;;;;;;;;;;;;;;27.64;40.57;99823.47;4917981;29;19915;-60
2022/05/24 12:28:37;;;;;;;;;;;;;;;27.66;40.79;99823.81;4918078;29;19915;-61
2022/05/24 12:31:22;;;;;;;;;;;;;;;27.75;40.51;99821.09;4918068;29;19914;-61
2022/05/24 12:34:14;;;;;;;;;;;;;;;27.79;40.65;99815.34;4918179;29;20379;-60
2022/05/24 12:37:00;;;;;;;;;;;;;;;27.87;40.07;99823.03;4917368;29;19915;-60
2022/05/24 12:40:03;;;;;;;;;;;;;;;27.91;39.88;99820.91;4920385;29;19923;-60
2022/05/24 12:42:54;;;;;;;;;;;;;;;28.00;40.25;99815.38;4917675;29;19919;-60
2022/05/24 12:45:40;;;;;;;;;;;;;;;28.08;40.28;99821.47;4927047;29;20371;-60
2022/05/24 12:48:31;;;;;;;;;;;;;;;28.08;39.56;99815.88;4917425;29;19915;-61
2022/05/24 12:51:19;;;;;;;;;;;;;;;28.05;39.64;99816.78;4931487;29;19923;-61
2022/05/24 12:54:11;;;;;;;;;;;;;;;28.22;39.55;99809.00;4922586;29;19914;-62
2022/05/24 12:57:05;;;;;;;;;;;;;;;28.26;40.19;99809.63;4917236;29;19915;-60
2022/05/24 12:59:54;;;;;;;;;;;;;;;28.30;39.69;99805.47;4918951;29;19919;-61
2022/05/24 13:02:39;;;;;;;;;;;;;;;28.37;39.71;99804.41;4918457;29;19915;-60
2022/05/24 13:05:29;;;;;;;;;;;;;;;28.49;39.48;99795.94;4919565;29;19915;-60
2022/05/24 13:08:15;;;;;;;;;;;;;;;28.61;39.55;99799.84;4912033;29;19914;-60
2022/05/24 13:11:00;;;;;;;;;;;;;;;28.71;39.34;99801.44;4914985;29;19915;-61
2022/05/24 13:13:45;;;;;;;;;;;;;;;28.80;38.66;99795.91;4919444;29;20375;-61
2022/05/24 13:16:31;;;;;;;;;;;;;;;28.85;38.69;99789.69;4917239;29;19956;-60
2022/05/24 13:19:15;;;;;;;;;;;;;;;28.91;38.43;99787.06;4917547;29;19915;-60
2022/05/24 13:21:59;;;;;;;;;;;;;;;28.92;38.22;99788.63;4916764;29;19915;-60
2022/05/24 13:24:55;;;;;;;;;;;;;;;28.99;38.75;99788.34;4916961;29;19914;-60
2022/05/24 13:27:58;;;;;;;;;;;;;;;29.00;38.27;99789.13;4916423;29;20383;-60
2022/05/24 13:33:52;;;;;;;;;;;;;;;28.91;37.51;99782.25;4917103;29;19919;-60
2022/05/24 13:36:45;;;;;;;;;;;;;;;28.83;38.26;99781.00;4916755;29;19915;-61
2022/05/24 13:39:47;;;;;;;;;;;;;;;28.74;38.48;99783.00;4916810;29;19914;-60
2022/05/24 13:42:32;;;;;;;;;;;;;;;28.72;39.00;99780.66;4916447;29;19915;-60
2022/05/24 13:45:18;;;;;;;;;;;;;;;28.78;38.75;99784.41;4930674;28;19915;-61
2022/05/24 13:48:21;;;;;;;;;;;;;;;28.74;38.47;99789.38;4918412;29;19915;-62
2022/05/24 13:51:07;;;;;;;;;;;;;;;28.84;37.67;99778.97;4910806;29;19915;-60
2022/05/24 13:53:55;;;;;;;;;;;;;;;28.76;38.12;99775.69;4916499;29;20386;-61
2022/05/24 13:56:45;;;;;;;;;;;;;;;28.82;37.68;99779.44;4920842;29;19915;-60
2022/05/24 13:59:30;;;;;;;;;;;;;;;28.89;37.59;99772.78;4918911;29;19915;-60
2022/05/24 14:02:16;;;;;;;;;;;;;;;28.86;38.00;99774.47;4916471;29;19915;-60
2022/05/24 14:05:01;;;;;;;;;;;;;;;28.81;37.23;99772.28;4922687;29;19915;-60
2022/05/24 14:07:46;;;;;;;;;;;;;;;28.84;37.22;99771.38;4926178;29;20290;-59
2022/05/24 14:10:31;;;;;;;;;;;;;;;28.90;37.01;99771.53;4907904;29;19915;-60
2022/05/24 14:13:15;;;;;;;;;;;;;;;28.93;37.01;99773.41;4920574;29;19919;-61
2022/05/24 14:16:02;;;;;;;;;;;;;;;28.84;36.63;99765.78;4916547;29;19915;-61
2022/05/24 14:18:46;;;;;;;;;;;;;;;28.81;38.06;99766.69;4914516;29;19925;-61
2022/05/24 14:21:33;;;;;;;;;;;;;;;28.81;37.27;99766.69;4960465;23;19922;-89
2022/05/24 14:24:18;;;;;;;;;;;;;;;28.80;36.26;99765.13;4969468;28;19918;-89
2022/05/24 14:27:03;;;;;;;;;;;;;;;28.81;36.32;99761.09;4954285;28;20420;-87
2022/05/24 14:29:54;;;;;;;;;;;;;;;28.86;36.78;99768.88;4958896;28;19914;-89
2022/05/24 14:32:38;;;;;;;;;;;;;;;28.86;36.43;99763.28;4952694;28;19919;-90
2022/05/24 14:35:23;;;;;;;;;;;;;;;28.86;37.04;99762.50;4945647;28;19923;-88
2022/05/24 14:38:07;;;;;;;;;;;;;;;28.83;37.55;99764.22;4947736;28;19914;-90
2022/05/24 14:40:53;;;;;;;;;;;;;;;28.86;37.00;99763.28;4950447;28;19914;-90
2022/05/24 14:43:38;;;;;;;;;;;;;;;28.85;37.31;99761.72;4941726;29;19914;-90
2022/05/24 14:46:23;;;;;;;;;;;;;;;28.89;37.32;99756.75;4950472;29;19914;-90
2022/05/24 14:49:08;;;;;;;;;;;;;;;28.91;37.71;99762.66;4941672;29;19915;-89